createdAt,value
2018-09-20T00:01:09.955Z,8.97
2018-09-20T00:03:38.394Z,9.40
2018-09-20T00:06:06.853Z,8.83
2018-09-20T00:08:35.321Z,8.87
2018-09-20T00:11:03.789Z,9.23
2018-09-20T00:13:32.264Z,8.60
2018-09-20T00:16:00.725Z,7.87
2018-09-20T00:18:29.177Z,8.47
2018-09-20T00:20:57.616Z,7.53
2018-09-20T00:23:26.063Z,8.73
2018-09-20T00:25:54.509Z,8.33
2018-09-20T00:28:22.943Z,9.17
2018-09-20T00:30:51.391Z,8.40
2018-09-20T00:33:19.866Z,9.57
2018-09-20T00:35:48.285Z,9.07
2018-09-20T00:38:16.765Z,9.50
2018-09-20T00:40:45.197Z,9.40
2018-09-20T00:43:13.607Z,8.43
2018-09-20T00:45:42.092Z,9.10
2018-09-20T00:48:10.514Z,9.27
2018-09-20T00:50:38.936Z,9.07
2018-09-20T00:53:07.464Z,9.10
2018-09-20T00:55:35.904Z,9.50
2018-09-20T00:58:04.355Z,9.10
2018-09-20T01:00:38.394Z,9.17
2018-09-20T01:03:06.900Z,9.83
2018-09-20T01:05:35.336Z,8.77
2018-09-20T01:08:03.776Z,9.30
2018-09-20T01:10:32.254Z,8.83
2018-09-20T01:13:00.694Z,9.87
2018-09-20T01:15:29.112Z,9.40
2018-09-20T01:17:57.541Z,8.87
2018-09-20T01:20:26.028Z,9.57
2018-09-20T01:22:54.468Z,8.97
2018-09-20T01:25:22.950Z,9.70
2018-09-20T01:27:51.387Z,9.57
2018-09-20T01:30:19.849Z,9.43
2018-09-20T01:32:48.332Z,9.40
2018-09-20T01:35:16.814Z,9.23
2018-09-20T01:37:45.229Z,9.67
2018-09-20T01:40:13.661Z,9.60
2018-09-20T01:42:42.077Z,9.73
2018-09-20T01:45:10.499Z,9.93
2018-09-20T01:47:38.937Z,9.20
2018-09-20T01:50:07.417Z,9.27
2018-09-20T01:52:35.843Z,9.10
2018-09-20T01:55:04.371Z,9.63
2018-09-20T01:57:32.787Z,9.13
2018-09-20T02:00:01.228Z,9.57
2018-09-20T02:02:29.674Z,9.27
2018-09-20T02:04:58.101Z,9.33
2018-09-20T02:07:26.522Z,9.30
2018-09-20T02:09:54.938Z,9.30
2018-09-20T02:12:23.419Z,9.53
2018-09-20T02:14:51.839Z,9.63
2018-09-20T02:17:20.314Z,9.53
2018-09-20T02:19:48.742Z,9.23
2018-09-20T02:22:17.157Z,9.67
2018-09-20T02:24:45.559Z,8.77
2018-09-20T02:27:13.978Z,9.53
2018-09-20T02:29:42.415Z,10.07
2018-09-20T02:32:10.837Z,9.90
2018-09-20T02:34:39.250Z,9.60
2018-09-20T02:37:07.681Z,9.00
2018-09-20T02:39:36.210Z,9.83
2018-09-20T02:42:04.690Z,12.87
2018-09-20T02:44:33.131Z,13.30
2018-09-20T02:47:01.559Z,13.80
2018-09-20T02:49:29.986Z,12.13
2018-09-20T02:51:58.439Z,11.57
2018-09-20T02:54:26.865Z,11.33
2018-09-20T02:56:55.316Z,11.00
2018-09-20T02:59:23.758Z,10.10
2018-09-20T03:01:52.194Z,9.60
2018-09-20T03:04:20.644Z,10.20
2018-09-20T03:06:49.078Z,10.50
2018-09-20T03:09:17.490Z,9.80
2018-09-20T03:11:45.928Z,10.13
2018-09-20T03:14:14.369Z,10.17
2018-09-20T03:16:42.816Z,10.00
2018-09-20T03:19:11.291Z,9.73
2018-09-20T03:21:39.738Z,9.40
2018-09-20T03:24:08.204Z,10.10
2018-09-20T03:26:36.657Z,9.83
2018-09-20T03:29:05.217Z,9.43
2018-09-20T03:31:33.667Z,9.57
2018-09-20T03:34:02.159Z,9.63
2018-09-20T03:36:30.579Z,10.87
2018-09-20T03:38:59.038Z,9.80
2018-09-20T03:41:27.513Z,9.57
2018-09-20T03:43:55.957Z,10.00
2018-09-20T03:46:24.403Z,10.30
2018-09-20T03:48:52.847Z,10.23
2018-09-20T03:51:21.253Z,9.30
2018-09-20T03:53:49.692Z,9.33
2018-09-20T03:56:18.104Z,9.30
2018-09-20T03:58:46.580Z,9.37
2018-09-20T04:01:14.998Z,9.40
2018-09-20T04:03:43.478Z,9.70
2018-09-20T04:06:11.908Z,9.40
2018-09-20T04:08:40.350Z,9.73
2018-09-20T04:11:08.795Z,8.83
2018-09-20T04:13:37.223Z,9.37
2018-09-20T04:16:05.656Z,9.60
2018-09-20T04:18:34.102Z,9.40
2018-09-20T04:21:02.568Z,9.17
2018-09-20T04:23:31.008Z,8.93
2018-09-20T04:25:59.466Z,8.80
2018-09-20T04:28:27.911Z,8.60
2018-09-20T04:30:56.340Z,8.90
2018-09-20T04:33:24.789Z,8.80
2018-09-20T04:35:53.250Z,8.53
2018-09-20T04:38:21.712Z,8.93
2018-09-20T04:40:50.262Z,9.07
2018-09-20T04:43:18.668Z,8.40
2018-09-20T04:45:47.106Z,8.17
2018-09-20T04:48:16.236Z,8.23
2018-09-20T04:50:44.676Z,7.43
2018-09-20T04:53:13.133Z,8.40
2018-09-20T04:55:41.600Z,8.23
2018-09-20T04:58:10.068Z,8.50
2018-09-20T05:00:38.540Z,8.40
2018-09-20T05:03:07.102Z,8.43
2018-09-20T05:05:36.454Z,8.00
2018-09-20T05:08:06.184Z,7.93
2018-09-20T05:10:34.674Z,8.27
2018-09-20T05:13:03.546Z,8.70
2018-09-20T05:15:32.358Z,7.90
2018-09-20T05:18:02.337Z,8.47
2018-09-20T05:20:30.762Z,8.67
2018-09-20T05:23:00.202Z,8.67
2018-09-20T05:25:29.173Z,8.47
2018-09-20T05:27:57.823Z,8.67
2018-09-20T05:30:26.229Z,8.33
2018-09-20T05:32:56.152Z,8.37
2018-09-20T05:35:24.629Z,8.83
2018-09-20T05:37:53.019Z,8.90
2018-09-20T05:47:14.255Z,8.20
2018-09-20T05:49:42.720Z,8.07
2018-09-20T05:52:11.183Z,7.53
2018-09-20T05:54:40.390Z,7.53
2018-09-20T05:57:08.823Z,7.40
2018-09-20T05:59:37.311Z,7.17
2018-09-20T06:02:06.465Z,8.13
2018-09-20T06:04:34.936Z,7.53
2018-09-20T06:07:03.431Z,7.90
2018-09-20T06:09:31.929Z,7.43
2018-09-20T06:12:00.374Z,7.47
2018-09-20T06:14:28.790Z,8.37
2018-09-20T06:16:57.233Z,6.83
2018-09-20T06:19:25.715Z,7.37
2018-09-20T06:21:54.235Z,7.70
2018-09-20T06:24:22.658Z,7.50
2018-09-20T06:26:51.074Z,7.70
2018-09-20T06:29:19.480Z,6.70
2018-09-20T06:31:47.914Z,7.70
2018-09-20T06:34:16.353Z,6.90
2018-09-20T06:36:44.775Z,7.20
2018-09-20T06:39:13.634Z,7.10
2018-09-20T06:41:42.660Z,6.90
2018-09-20T06:44:11.228Z,7.63
2018-09-20T06:46:39.888Z,7.37
2018-09-20T06:49:08.304Z,6.93
2018-09-20T06:51:36.714Z,7.63
2018-09-20T06:54:05.183Z,7.30
2018-09-20T06:56:33.653Z,7.97
2018-09-20T06:59:02.070Z,7.43
2018-09-20T07:01:30.524Z,6.80
2018-09-20T07:03:58.968Z,7.30
2018-09-20T07:06:27.386Z,6.70
2018-09-20T07:08:55.851Z,6.67
2018-09-20T07:11:24.285Z,6.53
2018-09-20T07:13:52.730Z,6.07
2018-09-20T07:16:21.162Z,6.13
2018-09-20T07:18:49.663Z,5.73
2018-09-20T07:21:18.137Z,6.53
2018-09-20T07:23:46.584Z,5.63
2018-09-20T07:26:15.020Z,5.97
2018-09-20T07:28:43.487Z,6.03
2018-09-20T07:31:12.004Z,5.73
2018-09-20T07:33:40.477Z,5.30
2018-09-20T07:36:08.935Z,5.07
2018-09-20T07:38:37.445Z,5.43
2018-09-20T07:41:05.906Z,5.87
2018-09-20T07:43:34.407Z,6.23
2018-09-20T07:46:02.827Z,5.77
2018-09-20T07:48:31.288Z,5.63
2018-09-20T07:50:59.707Z,5.80
2018-09-20T07:53:28.110Z,5.80
2018-09-20T07:55:56.551Z,5.30
2018-09-20T07:58:24.991Z,5.60
2018-09-20T08:00:53.515Z,5.37
2018-09-20T08:03:22.126Z,5.80
2018-09-20T08:05:50.613Z,5.57
2018-09-20T08:08:19.288Z,5.77
2018-09-20T08:10:47.755Z,5.13
2018-09-20T08:13:16.246Z,6.57
2018-09-20T08:15:44.730Z,5.77
2018-09-20T08:18:13.238Z,5.57
2018-09-20T08:20:41.676Z,5.90
2018-09-20T08:23:10.104Z,5.73
2018-09-20T08:25:38.989Z,5.77
2018-09-20T08:28:07.627Z,5.20
2018-09-20T08:30:36.130Z,5.43
2018-09-20T08:33:04.633Z,6.13
2018-09-20T08:35:33.058Z,5.63
2018-09-20T08:38:01.524Z,5.57
2018-09-20T08:40:29.974Z,5.30
2018-09-20T08:42:58.412Z,5.27
2018-09-20T08:45:26.830Z,5.97
2018-09-20T08:47:55.281Z,4.87
2018-09-20T08:50:23.708Z,5.83
2018-09-20T08:52:52.169Z,5.73
2018-09-20T08:55:20.592Z,5.30
2018-09-20T08:57:55.483Z,5.90
2018-09-20T09:00:24.275Z,5.90
2018-09-20T09:02:52.757Z,5.67
2018-09-20T09:05:21.281Z,6.00
2018-09-20T09:07:50.005Z,5.77
2018-09-20T09:10:18.521Z,5.43
2018-09-20T09:12:47.049Z,6.07
2018-09-20T09:15:15.561Z,5.03
2018-09-20T09:17:44.039Z,6.17
2018-09-20T09:20:12.566Z,6.23
2018-09-20T09:22:42.197Z,5.63
2018-09-20T09:25:10.661Z,5.77
2018-09-20T09:27:39.077Z,5.10
2018-09-20T09:30:07.585Z,6.23
2018-09-20T09:32:36.070Z,5.53
2018-09-20T09:35:04.592Z,5.33
2018-09-20T09:37:33.114Z,6.13
2018-09-20T09:40:01.628Z,5.63
2018-09-20T09:42:30.117Z,5.33
2018-09-20T09:44:58.584Z,5.30
2018-09-20T09:47:27.033Z,4.93
2018-09-20T09:49:55.472Z,5.37
2018-09-20T09:52:24.088Z,4.60
2018-09-20T09:54:52.614Z,5.00
2018-09-20T09:57:21.021Z,4.67
2018-09-20T09:59:49.513Z,5.67
2018-09-20T10:02:17.942Z,4.87
2018-09-20T10:04:46.408Z,5.13
2018-09-20T10:07:14.909Z,5.23
2018-09-20T10:09:43.320Z,5.00
2018-09-20T10:12:11.790Z,5.30
2018-09-20T10:14:40.230Z,5.40
2018-09-20T10:17:08.716Z,4.97
2018-09-20T10:19:37.158Z,5.43
2018-09-20T10:22:05.627Z,4.93
2018-09-20T10:24:34.088Z,4.63
2018-09-20T10:27:02.538Z,4.87
2018-09-20T10:29:30.976Z,4.20
2018-09-20T10:31:59.430Z,4.83
2018-09-20T10:34:27.850Z,4.27
2018-09-20T10:36:56.315Z,4.67
2018-09-20T10:39:24.731Z,5.13
2018-09-20T10:41:53.242Z,3.90
2018-09-20T10:44:21.751Z,4.47
2018-09-20T10:46:50.207Z,5.23
2018-09-20T10:49:18.653Z,5.17
2018-09-20T10:51:47.090Z,4.20
2018-09-20T10:54:15.537Z,4.47
2018-09-20T10:56:43.962Z,4.53
2018-09-20T10:59:12.435Z,4.20
2018-09-20T11:01:40.953Z,4.73
2018-09-20T11:04:09.400Z,4.77
2018-09-20T11:06:37.833Z,4.73
2018-09-20T11:09:08.875Z,4.73
2018-09-20T11:11:37.405Z,4.20
2018-09-20T11:14:06.068Z,4.67
2018-09-20T11:16:34.512Z,4.73
2018-09-20T11:19:02.975Z,3.80
2018-09-20T11:21:31.442Z,4.20
2018-09-20T11:23:59.873Z,3.87
2018-09-20T11:26:28.311Z,4.70
2018-09-20T11:28:56.778Z,4.63
2018-09-20T11:31:25.257Z,4.40
2018-09-20T11:33:53.743Z,4.40
2018-09-20T11:36:22.296Z,4.80
2018-09-20T11:38:50.724Z,4.10
2018-09-20T11:41:19.237Z,3.80
2018-09-20T11:43:48.129Z,4.07
2018-09-20T11:46:16.548Z,4.37
2018-09-20T11:48:45.019Z,4.90
2018-09-20T11:51:13.487Z,3.80
2018-09-20T11:53:41.924Z,4.23
2018-09-20T11:56:10.385Z,3.87
2018-09-20T11:58:38.847Z,3.57
2018-09-20T12:01:07.294Z,4.23
2018-09-20T12:03:35.806Z,3.63
2018-09-20T12:06:04.290Z,3.37
2018-09-20T12:08:32.803Z,3.60
2018-09-20T12:11:01.206Z,4.03
2018-09-20T12:13:29.662Z,3.50
2018-09-20T12:15:58.112Z,4.17
2018-09-20T12:18:26.560Z,3.80
2018-09-20T12:20:55.016Z,4.00
2018-09-20T12:23:23.454Z,3.57
2018-09-20T12:25:51.947Z,3.43
2018-09-20T12:28:20.381Z,3.63
2018-09-20T12:30:48.855Z,3.90
2018-09-20T12:33:17.374Z,3.80
2018-09-20T12:35:45.881Z,3.80
2018-09-20T12:38:14.342Z,4.10
2018-09-20T12:40:42.776Z,3.27
2018-09-20T12:43:11.259Z,3.90
2018-09-20T12:45:39.713Z,3.43
2018-09-20T12:48:08.192Z,3.60
2018-09-20T12:50:36.621Z,4.23
2018-09-20T12:53:05.243Z,3.87
2018-09-20T12:55:33.739Z,3.53
2018-09-20T12:58:02.186Z,3.50
2018-09-20T13:00:30.649Z,4.00
2018-09-20T13:02:59.164Z,3.60
2018-09-20T13:05:27.779Z,3.30
2018-09-20T13:07:56.231Z,3.20
2018-09-20T13:10:24.667Z,3.67
2018-09-20T13:12:53.139Z,3.63
2018-09-20T13:15:21.567Z,3.83
2018-09-20T13:17:50.001Z,3.40
2018-09-20T13:20:18.527Z,3.70
2018-09-20T13:22:46.977Z,3.50
2018-09-20T13:25:15.576Z,3.77
2018-09-20T13:27:44.195Z,3.20
2018-09-20T13:30:12.658Z,3.23
2018-09-20T13:32:41.107Z,3.50
2018-09-20T13:35:09.578Z,2.83
2018-09-20T13:37:38.091Z,3.33
2018-09-20T13:40:06.608Z,3.10
2018-09-20T13:42:35.066Z,3.87
2018-09-20T13:45:03.602Z,3.87
2018-09-20T13:47:32.101Z,3.87
2018-09-20T13:50:00.551Z,3.13
2018-09-20T13:52:29.041Z,3.53
2018-09-20T13:55:04.315Z,4.00
2018-09-20T13:57:32.751Z,3.40
2018-09-20T14:00:01.279Z,3.70
2018-09-20T14:02:29.731Z,3.40
2018-09-20T14:05:05.021Z,3.27
2018-09-20T14:07:33.595Z,3.13
2018-09-20T14:10:02.037Z,3.30
2018-09-20T14:12:30.507Z,3.57
2018-09-20T14:14:58.954Z,3.30
2018-09-20T14:17:27.412Z,3.43
2018-09-20T14:19:55.852Z,2.80
2018-09-20T14:22:24.274Z,3.37
2018-09-20T14:24:52.734Z,3.43
2018-09-20T14:27:21.208Z,3.77
2018-09-20T14:29:49.684Z,3.30
2018-09-20T14:32:18.120Z,3.43
2018-09-20T14:34:46.604Z,4.17
2018-09-20T14:37:15.040Z,3.57
2018-09-20T14:39:43.480Z,3.70
2018-09-20T14:42:11.950Z,3.77
2018-09-20T14:44:40.411Z,3.57
2018-09-20T14:47:08.966Z,4.07
2018-09-20T14:49:37.523Z,3.10
2018-09-20T14:52:06.077Z,3.47
2018-09-20T14:54:34.504Z,3.37
2018-09-20T14:57:03.000Z,3.53
2018-09-20T14:59:31.436Z,3.67
2018-09-20T15:01:59.882Z,3.83
2018-09-20T15:04:28.424Z,3.10
2018-09-20T15:06:56.862Z,3.63
2018-09-20T15:09:25.324Z,3.17
2018-09-20T15:11:53.834Z,3.50
2018-09-20T15:14:22.302Z,3.60
2018-09-20T15:16:50.764Z,3.33
2018-09-20T15:19:19.326Z,3.67
2018-09-20T15:21:47.797Z,3.63
2018-09-20T15:24:16.305Z,3.70
2018-09-20T15:26:44.768Z,3.50
2018-09-20T15:29:13.236Z,3.40
2018-09-20T15:31:41.762Z,3.13
2018-09-20T15:34:10.238Z,3.40
2018-09-20T15:36:38.756Z,3.67
2018-09-20T15:39:09.280Z,3.43
2018-09-20T15:41:37.758Z,3.30
2018-09-20T15:44:06.217Z,3.23
2018-09-20T15:46:34.716Z,2.90
2018-09-20T15:49:03.474Z,3.77
2018-09-20T15:51:31.966Z,3.10
2018-09-20T15:54:00.506Z,3.60
2018-09-20T15:56:28.979Z,3.17
2018-09-20T15:58:57.456Z,3.17
2018-09-20T16:01:25.915Z,3.17
2018-09-20T16:03:54.347Z,3.27
2018-09-20T16:06:22.816Z,3.40
2018-09-20T16:08:51.905Z,3.40
2018-09-20T16:11:20.342Z,3.33
2018-09-20T16:13:48.822Z,3.13
2018-09-20T16:16:17.280Z,3.00
2018-09-20T16:18:45.780Z,2.83
2018-09-20T16:21:14.286Z,3.37
2018-09-20T16:23:42.746Z,3.20
2018-09-20T16:26:11.210Z,2.80
2018-09-20T16:28:56.431Z,3.10
2018-09-20T16:32:39.232Z,2.97
2018-09-20T16:36:21.681Z,3.17
2018-09-20T16:39:00.737Z,3.00
2018-09-20T16:41:34.610Z,3.17
2018-09-20T16:44:03.181Z,3.07
2018-09-20T16:46:31.784Z,2.90
2018-09-20T16:49:00.410Z,3.10
2018-09-20T16:51:28.893Z,3.10
2018-09-20T16:53:57.372Z,3.10
2018-09-20T16:56:25.809Z,3.03
2018-09-20T16:58:54.777Z,2.90
2018-09-20T17:01:23.657Z,3.53
2018-09-20T17:03:52.125Z,3.43
2018-09-20T17:06:20.929Z,3.47
2018-09-20T17:08:50.009Z,3.40
2018-09-20T17:11:18.427Z,3.43
2018-09-20T17:13:47.077Z,3.83
2018-09-20T17:16:15.622Z,3.53
2018-09-20T17:18:44.028Z,3.50
2018-09-20T17:21:12.494Z,2.90
2018-09-20T17:23:41.146Z,3.73
2018-09-20T17:26:09.753Z,3.23
2018-09-20T17:28:38.536Z,3.13
2018-09-20T17:31:07.288Z,3.37
2018-09-20T17:33:35.731Z,3.50
2018-09-20T17:36:04.230Z,3.53
2018-09-20T17:38:33.692Z,3.27
2018-09-20T17:41:39.606Z,3.50
2018-09-20T17:44:08.879Z,3.63
2018-09-20T17:46:37.355Z,3.20
2018-09-20T17:49:05.926Z,3.40
2018-09-20T17:51:34.841Z,3.27
2018-09-20T17:54:03.534Z,3.20
2018-09-20T17:56:32.440Z,3.63
2018-09-20T17:59:01.271Z,3.37
2018-09-20T18:01:29.757Z,3.53
2018-09-20T18:03:58.220Z,3.80
2018-09-20T18:06:26.677Z,3.30
2018-09-20T18:08:55.139Z,4.10
2018-09-20T18:11:23.633Z,3.90
2018-09-20T18:13:52.093Z,3.67
2018-09-20T18:16:20.593Z,3.77
2018-09-20T18:18:49.098Z,4.07
2018-09-20T18:21:17.597Z,3.90
2018-09-20T18:23:46.048Z,3.80
2018-09-20T18:26:14.527Z,3.83
2018-09-20T18:28:43.007Z,3.83
2018-09-20T18:31:11.457Z,3.47
2018-09-20T18:33:39.975Z,3.90
2018-09-20T18:36:08.485Z,3.80
2018-09-20T18:38:37.057Z,3.93
2018-09-20T18:41:05.563Z,3.80
2018-09-20T18:43:34.022Z,3.97
2018-09-20T18:46:02.500Z,4.10
2018-09-20T18:48:30.985Z,4.50
2018-09-20T18:50:59.462Z,3.90
2018-09-20T18:53:27.900Z,4.33
2018-09-20T18:55:56.355Z,4.23
2018-09-20T18:58:24.833Z,3.97
2018-09-20T19:00:53.836Z,4.30
2018-09-20T19:03:23.219Z,4.57
2018-09-20T19:05:51.688Z,4.50
2018-09-20T19:08:20.504Z,4.23
2018-09-20T19:10:49.076Z,4.40
2018-09-20T19:13:17.602Z,4.97
2018-09-20T19:15:46.152Z,4.10
2018-09-20T19:18:14.626Z,5.13
2018-09-20T19:20:43.145Z,4.30
2018-09-20T19:23:11.653Z,4.47
2018-09-20T19:25:40.184Z,4.90
2018-09-20T19:28:08.783Z,4.37
2018-09-20T19:30:37.232Z,4.30
2018-09-20T19:33:05.730Z,4.40
2018-09-20T19:35:34.258Z,4.80
2018-09-20T19:38:02.769Z,4.80
2018-09-20T19:40:31.256Z,4.80
2018-09-20T19:42:59.730Z,4.57
2018-09-20T19:45:28.203Z,4.87
2018-09-20T19:47:56.640Z,4.73
2018-09-20T19:50:25.086Z,5.10
2018-09-20T19:52:53.570Z,4.60
2018-09-20T19:55:22.063Z,4.93
2018-09-20T19:57:50.550Z,4.87
2018-09-20T20:00:19.073Z,4.90
2018-09-20T20:02:47.544Z,5.47
2018-09-20T20:05:16.015Z,5.17
2018-09-20T20:07:44.549Z,4.90
2018-09-20T20:10:12.989Z,5.30
2018-09-20T20:12:41.431Z,4.83
2018-09-20T20:15:09.878Z,5.30
2018-09-20T20:17:38.354Z,4.87
2018-09-20T20:20:06.950Z,5.37
2018-09-20T20:22:35.513Z,5.30
2018-09-20T20:25:04.063Z,4.83
2018-09-20T20:27:32.523Z,4.73
2018-09-20T20:30:00.970Z,4.43
2018-09-20T20:32:29.458Z,4.60
2018-09-20T20:34:57.903Z,4.33
2018-09-20T20:37:26.407Z,4.20
2018-09-20T20:39:55.005Z,4.00
2018-09-20T20:42:23.397Z,4.33
2018-09-20T20:44:51.901Z,4.10
2018-09-20T20:47:20.368Z,4.00
2018-09-20T20:49:48.806Z,4.10
2018-09-20T20:52:17.269Z,4.00
2018-09-20T20:54:45.735Z,4.00
2018-09-20T20:57:14.194Z,4.00
2018-09-20T20:59:45.514Z,3.93
2018-09-20T21:02:13.926Z,4.00
2018-09-20T21:04:42.362Z,4.10
2018-09-20T21:07:10.825Z,4.07
2018-09-20T21:09:39.317Z,4.30
2018-09-20T21:12:07.784Z,3.50
2018-09-20T21:14:36.253Z,3.60
2018-09-20T21:17:04.740Z,3.70
2018-09-20T21:19:33.181Z,3.57
2018-09-20T21:22:01.641Z,3.27
2018-09-20T21:24:30.100Z,3.50
2018-09-20T21:26:58.555Z,3.53
2018-09-20T21:29:27.007Z,3.80
2018-09-20T21:31:55.428Z,3.57
2018-09-20T21:34:23.905Z,3.37
2018-09-20T21:36:52.441Z,3.90
2018-09-20T21:39:20.871Z,4.00
2018-09-20T21:41:49.351Z,3.43
2018-09-20T21:44:17.785Z,3.33
2018-09-20T21:46:46.231Z,3.73
2018-09-20T21:49:14.724Z,3.33
2018-09-20T21:51:43.169Z,3.63
2018-09-20T21:54:11.644Z,3.50
2018-09-20T21:56:40.125Z,2.97
2018-09-20T21:59:08.584Z,3.50
2018-09-20T22:01:42.417Z,3.90
2018-09-20T22:04:10.900Z,3.10
2018-09-20T22:06:39.396Z,3.57
2018-09-20T22:09:10.228Z,3.43
2018-09-20T22:11:39.282Z,4.33
2018-09-20T22:14:07.818Z,3.60
2018-09-20T22:16:36.544Z,3.67
2018-09-20T22:19:05.128Z,3.60
2018-09-20T22:21:33.918Z,3.70
2018-09-20T22:24:02.392Z,4.07
2018-09-20T22:26:30.919Z,3.93
2018-09-20T22:28:59.431Z,3.70
2018-09-20T22:31:27.944Z,4.00
2018-09-20T22:33:56.416Z,3.60
2018-09-20T22:36:24.895Z,3.90
2018-09-20T22:38:53.335Z,4.07
2018-09-20T22:41:21.809Z,4.57
2018-09-20T22:43:50.295Z,3.90
2018-09-20T22:46:18.903Z,4.00
2018-09-20T22:48:47.426Z,3.87
2018-09-20T22:51:15.925Z,4.20
2018-09-20T22:53:44.467Z,4.20
2018-09-20T22:56:12.901Z,4.30
2018-09-20T22:58:41.379Z,4.30
2018-09-20T23:01:14.060Z,3.80
2018-09-20T23:03:42.867Z,4.13
2018-09-20T23:06:11.355Z,4.40
2018-09-20T23:08:39.818Z,4.70
2018-09-20T23:11:08.298Z,4.40
2018-09-20T23:13:36.764Z,4.40
2018-09-20T23:16:05.241Z,4.67
2018-09-20T23:18:33.731Z,4.13
2018-09-20T23:21:02.205Z,4.37
2018-09-20T23:23:30.678Z,4.70
2018-09-20T23:25:59.122Z,4.30
2018-09-20T23:28:27.602Z,4.43
2018-09-20T23:30:56.083Z,4.97
2018-09-20T23:33:24.567Z,4.53
2018-09-20T23:35:53.167Z,4.53
2018-09-20T23:38:21.691Z,4.87
2018-09-20T23:40:50.164Z,4.53
2018-09-20T23:43:18.583Z,4.77
2018-09-20T23:45:47.013Z,4.30
2018-09-20T23:48:15.458Z,5.20
2018-09-20T23:50:43.917Z,4.90
2018-09-20T23:53:12.330Z,5.07
2018-09-20T23:55:40.775Z,4.93
2018-09-20T23:58:09.249Z,4.83
